sensor_id;sensor_type;location;lat;lon;timestamp;P1;durP1;ratioP1;P2;durP2;ratioP2
37049;SDS011;22958;51.232;6.826;2023-05-07T00:00:10;14.50;;;8.33;;
37049;SDS011;22958;51.232;6.826;2023-05-07T00:02:36;16.20;;;8.23;;
37049;SDS011;22958;51.232;6.826;2023-05-07T00:05:02;14.65;;;7.82;;
37049;SDS011;22958;51.232;6.826;2023-05-07T00:07:28;15.93;;;8.05;;
37049;SDS011;22958;51.232;6.826;2023-05-07T00:09:54;17.03;;;7.33;;
37049;SDS011;22958;51.232;6.826;2023-05-07T00:12:19;15.50;;;7.97;;
37049;SDS011;22958;51.232;6.826;2023-05-07T00:14:45;12.13;;;6.80;;
37049;SDS011;22958;51.232;6.826;2023-05-07T00:17:11;16.63;;;7.50;;
37049;SDS011;22958;51.232;6.826;2023-05-07T00:19:36;15.63;;;7.13;;
37049;SDS011;22958;51.232;6.826;2023-05-07T00:22:02;14.90;;;7.37;;
37049;SDS011;22958;51.232;6.826;2023-05-07T00:24:27;15.57;;;7.37;;
37049;SDS011;22958;51.232;6.826;2023-05-07T00:26:53;14.40;;;7.20;;
37049;SDS011;22958;51.232;6.826;2023-05-07T00:29:18;21.97;;;8.77;;
37049;SDS011;22958;51.232;6.826;2023-05-07T00:31:44;19.57;;;8.43;;
37049;SDS011;22958;51.232;6.826;2023-05-07T00:34:09;12.10;;;7.33;;
37049;SDS011;22958;51.232;6.826;2023-05-07T00:36:35;17.50;;;8.20;;
37049;SDS011;22958;51.232;6.826;2023-05-07T00:39:00;17.83;;;8.33;;
37049;SDS011;22958;51.232;6.826;2023-05-07T00:41:28;14.70;;;7.13;;
37049;SDS011;22958;51.232;6.826;2023-05-07T00:43:55;14.68;;;8.10;;
37049;SDS011;22958;51.232;6.826;2023-05-07T00:46:21;17.40;;;7.68;;
37049;SDS011;22958;51.232;6.826;2023-05-07T00:48:47;13.85;;;6.88;;
37049;SDS011;22958;51.232;6.826;2023-05-07T00:51:14;14.35;;;7.85;;
37049;SDS011;22958;51.232;6.826;2023-05-07T00:53:40;15.13;;;7.27;;
37049;SDS011;22958;51.232;6.826;2023-05-07T00:56:06;17.13;;;7.87;;
37049;SDS011;22958;51.232;6.826;2023-05-07T00:58:32;18.77;;;7.85;;
37049;SDS011;22958;51.232;6.826;2023-05-07T01:00:58;12.95;;;7.40;;
37049;SDS011;22958;51.232;6.826;2023-05-07T01:03:24;11.20;;;7.05;;
37049;SDS011;22958;51.232;6.826;2023-05-07T01:05:50;12.93;;;7.28;;
37049;SDS011;22958;51.232;6.826;2023-05-07T01:08:17;19.20;;;7.13;;
37049;SDS011;22958;51.232;6.826;2023-05-07T01:10:43;12.60;;;6.95;;
37049;SDS011;22958;51.232;6.826;2023-05-07T01:13:09;15.63;;;7.25;;
37049;SDS011;22958;51.232;6.826;2023-05-07T01:15:37;15.23;;;7.28;;
37049;SDS011;22958;51.232;6.826;2023-05-07T01:18:03;13.50;;;7.05;;
37049;SDS011;22958;51.232;6.826;2023-05-07T01:20:29;17.63;;;8.52;;
37049;SDS011;22958;51.232;6.826;2023-05-07T01:22:55;11.80;;;6.90;;
37049;SDS011;22958;51.232;6.826;2023-05-07T01:27:48;11.18;;;6.40;;
37049;SDS011;22958;51.232;6.826;2023-05-07T01:30:13;12.23;;;7.23;;
37049;SDS011;22958;51.232;6.826;2023-05-07T01:32:43;14.68;;;6.57;;
37049;SDS011;22958;51.232;6.826;2023-05-07T01:35:22;11.40;;;6.00;;
37049;SDS011;22958;51.232;6.826;2023-05-07T01:37:51;10.95;;;5.68;;
37049;SDS011;22958;51.232;6.826;2023-05-07T01:40:17;14.05;;;6.75;;
37049;SDS011;22958;51.232;6.826;2023-05-07T01:42:43;12.40;;;6.72;;
37049;SDS011;22958;51.232;6.826;2023-05-07T01:45:10;13.93;;;6.57;;
37049;SDS011;22958;51.232;6.826;2023-05-07T01:47:37;10.18;;;6.40;;
37049;SDS011;22958;51.232;6.826;2023-05-07T01:52:33;14.85;;;6.47;;
37049;SDS011;22958;51.232;6.826;2023-05-07T01:54:59;12.07;;;6.07;;
37049;SDS011;22958;51.232;6.826;2023-05-07T01:57:25;13.10;;;6.53;;
37049;SDS011;22958;51.232;6.826;2023-05-07T01:59:50;13.73;;;6.43;;
37049;SDS011;22958;51.232;6.826;2023-05-07T02:02:16;13.33;;;6.73;;
37049;SDS011;22958;51.232;6.826;2023-05-07T02:04:41;10.03;;;5.97;;
37049;SDS011;22958;51.232;6.826;2023-05-07T02:07:07;14.53;;;6.50;;
37049;SDS011;22958;51.232;6.826;2023-05-07T02:09:32;9.03;;;5.63;;
37049;SDS011;22958;51.232;6.826;2023-05-07T02:11:58;12.00;;;6.20;;
37049;SDS011;22958;51.232;6.826;2023-05-07T02:14:23;11.00;;;6.00;;
37049;SDS011;22958;51.232;6.826;2023-05-07T02:16:50;12.45;;;6.03;;
37049;SDS011;22958;51.232;6.826;2023-05-07T02:19:16;13.77;;;5.47;;
37049;SDS011;22958;51.232;6.826;2023-05-07T02:21:42;12.03;;;5.47;;
37049;SDS011;22958;51.232;6.826;2023-05-07T02:24:07;12.47;;;5.37;;
37049;SDS011;22958;51.232;6.826;2023-05-07T02:26:33;8.17;;;4.93;;
37049;SDS011;22958;51.232;6.826;2023-05-07T02:28:59;14.95;;;6.22;;
37049;SDS011;22958;51.232;6.826;2023-05-07T02:31:24;7.03;;;4.70;;
37049;SDS011;22958;51.232;6.826;2023-05-07T02:33:50;9.67;;;4.53;;
37049;SDS011;22958;51.232;6.826;2023-05-07T02:36:15;8.27;;;4.37;;
37049;SDS011;22958;51.232;6.826;2023-05-07T02:38:41;8.27;;;4.07;;
37049;SDS011;22958;51.232;6.826;2023-05-07T02:41:06;8.83;;;4.60;;
37049;SDS011;22958;51.232;6.826;2023-05-07T02:43:32;10.53;;;5.00;;
37049;SDS011;22958;51.232;6.826;2023-05-07T02:46:04;11.37;;;4.50;;
37049;SDS011;22958;51.232;6.826;2023-05-07T02:48:31;8.82;;;3.65;;
37049;SDS011;22958;51.232;6.826;2023-05-07T02:50:57;6.82;;;4.07;;
37049;SDS011;22958;51.232;6.826;2023-05-07T02:53:23;8.23;;;4.07;;
37049;SDS011;22958;51.232;6.826;2023-05-07T02:55:51;10.85;;;4.45;;
37049;SDS011;22958;51.232;6.826;2023-05-07T03:00:43;10.07;;;4.30;;
37049;SDS011;22958;51.232;6.826;2023-05-07T03:03:09;7.13;;;3.40;;
37049;SDS011;22958;51.232;6.826;2023-05-07T03:08:01;7.78;;;3.50;;
37049;SDS011;22958;51.232;6.826;2023-05-07T03:10:26;9.87;;;3.53;;
37049;SDS011;22958;51.232;6.826;2023-05-07T03:12:52;8.60;;;3.47;;
37049;SDS011;22958;51.232;6.826;2023-05-07T03:15:17;9.00;;;3.70;;
37049;SDS011;22958;51.232;6.826;2023-05-07T03:17:43;11.30;;;3.63;;
37049;SDS011;22958;51.232;6.826;2023-05-07T03:20:09;7.87;;;3.70;;
37049;SDS011;22958;51.232;6.826;2023-05-07T03:25:01;5.72;;;4.00;;
37049;SDS011;22958;51.232;6.826;2023-05-07T03:27:26;8.33;;;3.00;;
37049;SDS011;22958;51.232;6.826;2023-05-07T03:29:52;6.37;;;3.80;;
37049;SDS011;22958;51.232;6.826;2023-05-07T03:32:17;9.10;;;3.60;;
37049;SDS011;22958;51.232;6.826;2023-05-07T03:34:43;9.20;;;3.20;;
37049;SDS011;22958;51.232;6.826;2023-05-07T03:37:08;5.13;;;3.33;;
37049;SDS011;22958;51.232;6.826;2023-05-07T03:39:34;7.03;;;3.70;;
37049;SDS011;22958;51.232;6.826;2023-05-07T03:42:00;9.30;;;3.53;;
37049;SDS011;22958;51.232;6.826;2023-05-07T03:44:26;6.73;;;3.60;;
37049;SDS011;22958;51.232;6.826;2023-05-07T03:46:51;9.77;;;3.50;;
37049;SDS011;22958;51.232;6.826;2023-05-07T03:49:17;8.60;;;3.03;;
37049;SDS011;22958;51.232;6.826;2023-05-07T03:51:42;6.13;;;3.10;;
37049;SDS011;22958;51.232;6.826;2023-05-07T03:54:08;6.87;;;3.00;;
37049;SDS011;22958;51.232;6.826;2023-05-07T03:56:33;8.70;;;3.57;;
37049;SDS011;22958;51.232;6.826;2023-05-07T03:58:59;7.20;;;3.00;;
37049;SDS011;22958;51.232;6.826;2023-05-07T04:01:25;4.63;;;2.75;;
37049;SDS011;22958;51.232;6.826;2023-05-07T04:03:51;5.60;;;3.30;;
37049;SDS011;22958;51.232;6.826;2023-05-07T04:06:16;6.27;;;3.03;;
37049;SDS011;22958;51.232;6.826;2023-05-07T04:08:42;6.83;;;3.13;;
37049;SDS011;22958;51.232;6.826;2023-05-07T04:11:08;10.50;;;3.27;;
37049;SDS011;22958;51.232;6.826;2023-05-07T04:13:33;7.97;;;3.90;;
37049;SDS011;22958;51.232;6.826;2023-05-07T04:16:00;4.27;;;3.07;;
37049;SDS011;22958;51.232;6.826;2023-05-07T04:18:27;3.92;;;2.83;;
37049;SDS011;22958;51.232;6.826;2023-05-07T04:20:53;7.20;;;3.10;;
37049;SDS011;22958;51.232;6.826;2023-05-07T04:23:18;8.13;;;3.07;;
37049;SDS011;22958;51.232;6.826;2023-05-07T04:25:44;3.80;;;2.57;;
37049;SDS011;22958;51.232;6.826;2023-05-07T04:28:10;7.27;;;2.97;;
37049;SDS011;22958;51.232;6.826;2023-05-07T04:30:36;7.68;;;3.17;;
37049;SDS011;22958;51.232;6.826;2023-05-07T04:33:02;7.03;;;3.47;;
37049;SDS011;22958;51.232;6.826;2023-05-07T04:35:27;6.50;;;3.47;;
37049;SDS011;22958;51.232;6.826;2023-05-07T04:37:53;4.63;;;2.80;;
37049;SDS011;22958;51.232;6.826;2023-05-07T04:40:18;8.33;;;3.10;;
37049;SDS011;22958;51.232;6.826;2023-05-07T04:42:44;5.30;;;3.00;;
37049;SDS011;22958;51.232;6.826;2023-05-07T04:45:10;11.53;;;2.80;;
37049;SDS011;22958;51.232;6.826;2023-05-07T04:47:35;9.73;;;2.60;;
37049;SDS011;22958;51.232;6.826;2023-05-07T04:50:01;4.40;;;2.10;;
37049;SDS011;22958;51.232;6.826;2023-05-07T04:52:27;4.70;;;2.70;;
37049;SDS011;22958;51.232;6.826;2023-05-07T04:54:52;4.00;;;2.53;;
37049;SDS011;22958;51.232;6.826;2023-05-07T04:57:18;8.47;;;2.67;;
37049;SDS011;22958;51.232;6.826;2023-05-07T04:59:44;6.93;;;2.80;;
37049;SDS011;22958;51.232;6.826;2023-05-07T05:02:10;3.90;;;2.40;;
37049;SDS011;22958;51.232;6.826;2023-05-07T05:04:35;2.88;;;1.98;;
37049;SDS011;22958;51.232;6.826;2023-05-07T05:07:01;8.32;;;1.83;;
37049;SDS011;22958;51.232;6.826;2023-05-07T05:09:28;8.60;;;2.47;;
37049;SDS011;22958;51.232;6.826;2023-05-07T05:11:54;3.27;;;2.23;;
37049;SDS011;22958;51.232;6.826;2023-05-07T05:14:20;4.93;;;2.60;;
37049;SDS011;22958;51.232;6.826;2023-05-07T05:16:45;6.53;;;2.50;;
37049;SDS011;22958;51.232;6.826;2023-05-07T05:19:11;7.20;;;2.20;;
37049;SDS011;22958;51.232;6.826;2023-05-07T05:21:36;5.73;;;2.70;;
37049;SDS011;22958;51.232;6.826;2023-05-07T05:24:02;5.50;;;2.77;;
37049;SDS011;22958;51.232;6.826;2023-05-07T05:26:28;14.87;;;2.70;;
37049;SDS011;22958;51.232;6.826;2023-05-07T05:28:53;8.77;;;2.37;;
37049;SDS011;22958;51.232;6.826;2023-05-07T05:31:19;8.97;;;2.37;;
37049;SDS011;22958;51.232;6.826;2023-05-07T05:33:44;4.53;;;2.87;;
37049;SDS011;22958;51.232;6.826;2023-05-07T05:36:10;4.43;;;2.20;;
37049;SDS011;22958;51.232;6.826;2023-05-07T05:38:37;4.85;;;2.40;;
37049;SDS011;22958;51.232;6.826;2023-05-07T05:41:03;6.27;;;2.27;;
37049;SDS011;22958;51.232;6.826;2023-05-07T05:43:29;4.17;;;2.70;;
37049;SDS011;22958;51.232;6.826;2023-05-07T05:45:55;9.63;;;2.27;;
37049;SDS011;22958;51.232;6.826;2023-05-07T05:48:21;7.05;;;2.28;;
37049;SDS011;22958;51.232;6.826;2023-05-07T05:50:47;4.03;;;2.20;;
37049;SDS011;22958;51.232;6.826;2023-05-07T05:53:13;6.97;;;2.40;;
37049;SDS011;22958;51.232;6.826;2023-05-07T05:55:38;3.30;;;1.97;;
37049;SDS011;22958;51.232;6.826;2023-05-07T05:58:04;3.97;;;2.37;;
37049;SDS011;22958;51.232;6.826;2023-05-07T06:00:30;2.97;;;1.90;;
37049;SDS011;22958;51.232;6.826;2023-05-07T06:02:55;3.97;;;1.90;;
37049;SDS011;22958;51.232;6.826;2023-05-07T06:05:21;7.25;;;2.55;;
37049;SDS011;22958;51.232;6.826;2023-05-07T06:07:47;4.13;;;2.00;;
37049;SDS011;22958;51.232;6.826;2023-05-07T06:10:12;4.70;;;1.93;;
37049;SDS011;22958;51.232;6.826;2023-05-07T06:12:38;5.83;;;2.10;;
37049;SDS011;22958;51.232;6.826;2023-05-07T06:15:04;3.30;;;1.73;;
37049;SDS011;22958;51.232;6.826;2023-05-07T06:17:30;4.55;;;2.00;;
37049;SDS011;22958;51.232;6.826;2023-05-07T06:19:55;3.37;;;1.63;;
37049;SDS011;22958;51.232;6.826;2023-05-07T06:22:21;3.33;;;1.70;;
37049;SDS011;22958;51.232;6.826;2023-05-07T06:24:46;4.33;;;2.27;;
37049;SDS011;22958;51.232;6.826;2023-05-07T06:27:12;7.57;;;1.97;;
37049;SDS011;22958;51.232;6.826;2023-05-07T06:29:37;4.30;;;2.10;;
37049;SDS011;22958;51.232;6.826;2023-05-07T06:32:07;3.43;;;2.00;;
37049;SDS011;22958;51.232;6.826;2023-05-07T06:34:33;6.03;;;2.33;;
37049;SDS011;22958;51.232;6.826;2023-05-07T06:36:58;2.83;;;1.67;;
37049;SDS011;22958;51.232;6.826;2023-05-07T06:39:24;4.77;;;2.03;;
37049;SDS011;22958;51.232;6.826;2023-05-07T06:41:49;3.07;;;1.90;;
37049;SDS011;22958;51.232;6.826;2023-05-07T06:44:15;5.20;;;1.60;;
37049;SDS011;22958;51.232;6.826;2023-05-07T06:46:40;3.53;;;1.40;;
37049;SDS011;22958;51.232;6.826;2023-05-07T06:49:06;4.63;;;1.70;;
37049;SDS011;22958;51.232;6.826;2023-05-07T06:51:32;3.37;;;1.73;;
37049;SDS011;22958;51.232;6.826;2023-05-07T06:53:57;6.43;;;1.70;;
37049;SDS011;22958;51.232;6.826;2023-05-07T06:56:23;4.13;;;1.60;;
37049;SDS011;22958;51.232;6.826;2023-05-07T06:58:49;5.63;;;2.22;;
37049;SDS011;22958;51.232;6.826;2023-05-07T07:01:14;5.10;;;1.63;;
37049;SDS011;22958;51.232;6.826;2023-05-07T07:03:40;4.20;;;1.80;;
37049;SDS011;22958;51.232;6.826;2023-05-07T07:06:05;4.40;;;1.77;;
37049;SDS011;22958;51.232;6.826;2023-05-07T07:08:31;14.03;;;2.60;;
37049;SDS011;22958;51.232;6.826;2023-05-07T07:10:57;4.23;;;1.43;;
37049;SDS011;22958;51.232;6.826;2023-05-07T07:13:22;3.63;;;1.50;;
37049;SDS011;22958;51.232;6.826;2023-05-07T07:15:48;5.07;;;1.50;;
37049;SDS011;22958;51.232;6.826;2023-05-07T07:18:13;4.03;;;1.70;;
37049;SDS011;22958;51.232;6.826;2023-05-07T07:20:39;4.83;;;1.50;;
37049;SDS011;22958;51.232;6.826;2023-05-07T07:23:05;3.57;;;1.73;;
37049;SDS011;22958;51.232;6.826;2023-05-07T07:25:30;2.07;;;1.50;;
37049;SDS011;22958;51.232;6.826;2023-05-07T07:27:56;6.17;;;1.60;;
37049;SDS011;22958;51.232;6.826;2023-05-07T07:30:21;2.30;;;1.30;;
37049;SDS011;22958;51.232;6.826;2023-05-07T07:32:47;4.23;;;1.20;;
37049;SDS011;22958;51.232;6.826;2023-05-07T07:35:13;2.83;;;1.52;;
37049;SDS011;22958;51.232;6.826;2023-05-07T07:37:39;6.47;;;1.43;;
37049;SDS011;22958;51.232;6.826;2023-05-07T07:40:05;3.30;;;1.90;;
37049;SDS011;22958;51.232;6.826;2023-05-07T07:42:31;7.13;;;1.88;;
37049;SDS011;22958;51.232;6.826;2023-05-07T07:44:56;4.93;;;2.10;;
37049;SDS011;22958;51.232;6.826;2023-05-07T07:47:22;5.20;;;1.50;;
37049;SDS011;22958;51.232;6.826;2023-05-07T07:49:48;3.97;;;1.50;;
37049;SDS011;22958;51.232;6.826;2023-05-07T07:52:13;3.30;;;1.47;;
37049;SDS011;22958;51.232;6.826;2023-05-07T07:54:39;8.10;;;1.87;;
37049;SDS011;22958;51.232;6.826;2023-05-07T07:57:04;2.90;;;1.50;;
37049;SDS011;22958;51.232;6.826;2023-05-07T07:59:30;7.80;;;2.57;;
37049;SDS011;22958;51.232;6.826;2023-05-07T08:01:55;5.23;;;1.97;;
37049;SDS011;22958;51.232;6.826;2023-05-07T08:04:22;6.78;;;2.15;;
37049;SDS011;22958;51.232;6.826;2023-05-07T08:06:47;5.67;;;2.07;;
37049;SDS011;22958;51.232;6.826;2023-05-07T08:09:13;6.97;;;2.37;;
37049;SDS011;22958;51.232;6.826;2023-05-07T08:11:38;7.47;;;1.80;;
37049;SDS011;22958;51.232;6.826;2023-05-07T08:14:04;4.40;;;1.52;;
37049;SDS011;22958;51.232;6.826;2023-05-07T08:16:30;6.93;;;2.00;;
37049;SDS011;22958;51.232;6.826;2023-05-07T08:18:55;7.17;;;1.60;;
37049;SDS011;22958;51.232;6.826;2023-05-07T08:21:21;5.50;;;2.07;;
37049;SDS011;22958;51.232;6.826;2023-05-07T08:26:13;4.65;;;2.10;;
37049;SDS011;22958;51.232;6.826;2023-05-07T08:28:39;3.80;;;1.83;;
37049;SDS011;22958;51.232;6.826;2023-05-07T08:31:04;4.17;;;2.00;;
37049;SDS011;22958;51.232;6.826;2023-05-07T08:33:30;2.57;;;1.70;;
37049;SDS011;22958;51.232;6.826;2023-05-07T08:35:56;5.83;;;1.70;;
37049;SDS011;22958;51.232;6.826;2023-05-07T08:38:21;5.33;;;1.70;;
37049;SDS011;22958;51.232;6.826;2023-05-07T08:40:47;3.80;;;1.80;;
37049;SDS011;22958;51.232;6.826;2023-05-07T08:43:13;2.37;;;1.53;;
37049;SDS011;22958;51.232;6.826;2023-05-07T08:45:39;3.75;;;1.70;;
37049;SDS011;22958;51.232;6.826;2023-05-07T08:48:08;4.13;;;1.70;;
37049;SDS011;22958;51.232;6.826;2023-05-07T08:50:38;4.00;;;1.40;;
37049;SDS011;22958;51.232;6.826;2023-05-07T08:53:04;5.53;;;2.10;;
37049;SDS011;22958;51.232;6.826;2023-05-07T08:55:30;3.40;;;1.67;;
37049;SDS011;22958;51.232;6.826;2023-05-07T08:57:56;5.38;;;1.83;;
37049;SDS011;22958;51.232;6.826;2023-05-07T09:00:21;3.03;;;1.77;;
37049;SDS011;22958;51.232;6.826;2023-05-07T09:02:47;10.10;;;2.03;;
37049;SDS011;22958;51.232;6.826;2023-05-07T09:05:12;4.40;;;1.93;;
37049;SDS011;22958;51.232;6.826;2023-05-07T09:07:39;3.80;;;1.95;;
37049;SDS011;22958;51.232;6.826;2023-05-07T09:10:04;5.03;;;1.98;;
37049;SDS011;22958;51.232;6.826;2023-05-07T09:12:31;8.13;;;1.58;;
37049;SDS011;22958;51.232;6.826;2023-05-07T09:14:56;8.77;;;2.20;;
37049;SDS011;22958;51.232;6.826;2023-05-07T09:17:23;7.70;;;1.85;;
37049;SDS011;22958;51.232;6.826;2023-05-07T09:19:49;5.53;;;1.73;;
37049;SDS011;22958;51.232;6.826;2023-05-07T09:22:15;2.72;;;1.60;;
37049;SDS011;22958;51.232;6.826;2023-05-07T09:24:41;5.97;;;2.00;;
37049;SDS011;22958;51.232;6.826;2023-05-07T09:27:13;5.35;;;1.80;;
37049;SDS011;22958;51.232;6.826;2023-05-07T09:29:38;3.47;;;1.80;;
37049;SDS011;22958;51.232;6.826;2023-05-07T09:32:07;3.63;;;1.90;;
37049;SDS011;22958;51.232;6.826;2023-05-07T09:34:33;3.45;;;1.80;;
37049;SDS011;22958;51.232;6.826;2023-05-07T09:37:02;10.52;;;2.28;;
37049;SDS011;22958;51.232;6.826;2023-05-07T09:39:41;10.18;;;2.50;;
37049;SDS011;22958;51.232;6.826;2023-05-07T09:42:08;10.48;;;1.60;;
37049;SDS011;22958;51.232;6.826;2023-05-07T09:44:34;6.28;;;2.03;;
37049;SDS011;22958;51.232;6.826;2023-05-07T09:47:00;3.47;;;1.65;;
37049;SDS011;22958;51.232;6.826;2023-05-07T09:49:29;5.38;;;1.83;;
37049;SDS011;22958;51.232;6.826;2023-05-07T09:51:58;4.28;;;1.65;;
37049;SDS011;22958;51.232;6.826;2023-05-07T09:54:29;6.15;;;1.65;;
37049;SDS011;22958;51.232;6.826;2023-05-07T09:56:55;3.17;;;1.60;;
37049;SDS011;22958;51.232;6.826;2023-05-07T09:59:22;7.32;;;1.50;;
37049;SDS011;22958;51.232;6.826;2023-05-07T10:01:48;5.60;;;1.85;;
37049;SDS011;22958;51.232;6.826;2023-05-07T10:04:14;2.85;;;1.58;;
37049;SDS011;22958;51.232;6.826;2023-05-07T10:06:41;6.50;;;1.92;;
37049;SDS011;22958;51.232;6.826;2023-05-07T10:09:08;5.18;;;1.98;;
37049;SDS011;22958;51.232;6.826;2023-05-07T10:11:34;4.13;;;1.90;;
37049;SDS011;22958;51.232;6.826;2023-05-07T10:14:01;4.88;;;1.60;;
37049;SDS011;22958;51.232;6.826;2023-05-07T10:16:28;5.53;;;1.75;;
37049;SDS011;22958;51.232;6.826;2023-05-07T10:18:58;4.22;;;1.38;;
37049;SDS011;22958;51.232;6.826;2023-05-07T10:21:24;4.30;;;1.52;;
37049;SDS011;22958;51.232;6.826;2023-05-07T10:23:59;6.28;;;1.38;;
37049;SDS011;22958;51.232;6.826;2023-05-07T10:26:28;14.75;;;1.63;;
37049;SDS011;22958;51.232;6.826;2023-05-07T10:28:57;3.25;;;1.23;;
37049;SDS011;22958;51.232;6.826;2023-05-07T10:34:09;8.70;;;1.30;;
37049;SDS011;22958;51.232;6.826;2023-05-07T10:36:37;2.58;;;1.55;;
37049;SDS011;22958;51.232;6.826;2023-05-07T10:39:04;4.43;;;1.30;;
37049;SDS011;22958;51.232;6.826;2023-05-07T10:41:31;5.30;;;1.48;;
37049;SDS011;22958;51.232;6.826;2023-05-07T10:43:56;2.50;;;1.38;;
37049;SDS011;22958;51.232;6.826;2023-05-07T10:46:26;3.97;;;1.42;;
37049;SDS011;22958;51.232;6.826;2023-05-07T10:51:27;3.28;;;1.10;;
37049;SDS011;22958;51.232;6.826;2023-05-07T10:56:37;3.65;;;1.08;;
37049;SDS011;22958;51.232;6.826;2023-05-07T11:01:56;6.57;;;1.33;;
37049;SDS011;22958;51.232;6.826;2023-05-07T11:04:23;5.88;;;1.02;;
37049;SDS011;22958;51.232;6.826;2023-05-07T11:12:16;4.28;;;0.80;;
37049;SDS011;22958;51.232;6.826;2023-05-07T11:17:11;3.72;;;1.08;;
37049;SDS011;22958;51.232;6.826;2023-05-07T11:19:52;4.35;;;1.10;;
37049;SDS011;22958;51.232;6.826;2023-05-07T11:24:59;4.90;;;1.50;;
37049;SDS011;22958;51.232;6.826;2023-05-07T11:27:25;4.35;;;1.20;;
37049;SDS011;22958;51.232;6.826;2023-05-07T11:29:51;5.32;;;1.40;;
37049;SDS011;22958;51.232;6.826;2023-05-07T11:32:27;2.88;;;1.20;;
37049;SDS011;22958;51.232;6.826;2023-05-07T11:34:54;2.67;;;1.20;;
37049;SDS011;22958;51.232;6.826;2023-05-07T11:37:21;2.92;;;1.30;;
37049;SDS011;22958;51.232;6.826;2023-05-07T11:39:48;3.72;;;1.50;;
37049;SDS011;22958;51.232;6.826;2023-05-07T11:45:09;4.18;;;1.23;;
37049;SDS011;22958;51.232;6.826;2023-05-07T11:47:35;3.65;;;1.27;;
37049;SDS011;22958;51.232;6.826;2023-05-07T11:50:06;6.67;;;1.20;;
37049;SDS011;22958;51.232;6.826;2023-05-07T11:52:33;2.83;;;1.35;;
37049;SDS011;22958;51.232;6.826;2023-05-07T11:54:59;5.32;;;2.00;;
37049;SDS011;22958;51.232;6.826;2023-05-07T11:57:26;5.38;;;4.00;;
37049;SDS011;22958;51.232;6.826;2023-05-07T11:59:53;7.03;;;4.30;;
37049;SDS011;22958;51.232;6.826;2023-05-07T12:02:19;3.72;;;2.38;;
37049;SDS011;22958;51.232;6.826;2023-05-07T12:04:44;4.45;;;2.22;;
37049;SDS011;22958;51.232;6.826;2023-05-07T12:07:13;5.43;;;1.63;;
37049;SDS011;22958;51.232;6.826;2023-05-07T12:09:40;2.88;;;1.45;;
37049;SDS011;22958;51.232;6.826;2023-05-07T12:12:06;8.73;;;1.52;;
37049;SDS011;22958;51.232;6.826;2023-05-07T12:14:32;2.80;;;1.35;;
37049;SDS011;22958;51.232;6.826;2023-05-07T12:17:02;4.07;;;1.20;;
37049;SDS011;22958;51.232;6.826;2023-05-07T12:19:30;4.55;;;1.02;;
37049;SDS011;22958;51.232;6.826;2023-05-07T12:21:56;1.85;;;1.30;;
37049;SDS011;22958;51.232;6.826;2023-05-07T12:24:22;5.53;;;1.13;;
37049;SDS011;22958;51.232;6.826;2023-05-07T12:26:48;2.97;;;1.10;;
37049;SDS011;22958;51.232;6.826;2023-05-07T12:29:14;3.88;;;1.45;;
37049;SDS011;22958;51.232;6.826;2023-05-07T12:31:42;2.50;;;1.33;;
37049;SDS011;22958;51.232;6.826;2023-05-07T12:34:10;3.60;;;1.58;;
37049;SDS011;22958;51.232;6.826;2023-05-07T12:36:36;2.22;;;1.50;;
37049;SDS011;22958;51.232;6.826;2023-05-07T12:39:04;2.17;;;1.20;;
37049;SDS011;22958;51.232;6.826;2023-05-07T12:41:53;1.92;;;1.13;;
37049;SDS011;22958;51.232;6.826;2023-05-07T12:44:26;1.83;;;1.05;;
37049;SDS011;22958;51.232;6.826;2023-05-07T12:46:55;1.83;;;1.08;;
37049;SDS011;22958;51.232;6.826;2023-05-07T12:49:21;3.00;;;1.13;;
37049;SDS011;22958;51.232;6.826;2023-05-07T12:54:14;4.53;;;1.58;;
37049;SDS011;22958;51.232;6.826;2023-05-07T12:57:06;2.80;;;1.50;;
37049;SDS011;22958;51.232;6.826;2023-05-07T12:59:39;7.40;;;1.23;;
37049;SDS011;22958;51.232;6.826;2023-05-07T13:02:05;4.40;;;1.40;;
37049;SDS011;22958;51.232;6.826;2023-05-07T13:04:31;3.63;;;1.55;;
37049;SDS011;22958;51.232;6.826;2023-05-07T13:06:57;5.65;;;1.70;;
37049;SDS011;22958;51.232;6.826;2023-05-07T13:09:24;8.32;;;1.70;;
37049;SDS011;22958;51.232;6.826;2023-05-07T13:11:49;5.07;;;2.23;;
37049;SDS011;22958;51.232;6.826;2023-05-07T13:14:15;6.87;;;2.03;;
37049;SDS011;22958;51.232;6.826;2023-05-07T13:16:40;5.17;;;1.70;;
37049;SDS011;22958;51.232;6.826;2023-05-07T13:19:06;4.80;;;1.83;;
37049;SDS011;22958;51.232;6.826;2023-05-07T13:21:32;4.28;;;1.75;;
37049;SDS011;22958;51.232;6.826;2023-05-07T13:23:57;7.30;;;1.75;;
37049;SDS011;22958;51.232;6.826;2023-05-07T13:26:23;3.63;;;1.80;;
37049;SDS011;22958;51.232;6.826;2023-05-07T13:28:49;6.25;;;2.50;;
37049;SDS011;22958;51.232;6.826;2023-05-07T13:31:15;4.50;;;2.05;;
37049;SDS011;22958;51.232;6.826;2023-05-07T13:33:42;4.68;;;1.83;;
37049;SDS011;22958;51.232;6.826;2023-05-07T13:36:07;3.00;;;1.60;;
37049;SDS011;22958;51.232;6.826;2023-05-07T13:38:33;3.93;;;1.57;;
37049;SDS011;22958;51.232;6.826;2023-05-07T13:40:58;7.13;;;2.07;;
37049;SDS011;22958;51.232;6.826;2023-05-07T13:43:24;4.50;;;1.30;;
37049;SDS011;22958;51.232;6.826;2023-05-07T13:45:50;2.00;;;1.55;;
37049;SDS011;22958;51.232;6.826;2023-05-07T13:48:15;3.60;;;1.90;;
37049;SDS011;22958;51.232;6.826;2023-05-07T13:50:41;9.17;;;2.27;;
37049;SDS011;22958;51.232;6.826;2023-05-07T13:53:07;9.13;;;2.50;;
37049;SDS011;22958;51.232;6.826;2023-05-07T13:55:33;6.25;;;3.03;;
37049;SDS011;22958;51.232;6.826;2023-05-07T13:57:59;13.25;;;3.72;;
37049;SDS011;22958;51.232;6.826;2023-05-07T14:00:26;6.13;;;2.30;;
37049;SDS011;22958;51.232;6.826;2023-05-07T14:02:53;8.68;;;3.28;;
37049;SDS011;22958;51.232;6.826;2023-05-07T14:05:19;13.38;;;5.85;;
37049;SDS011;22958;51.232;6.826;2023-05-07T14:07:45;16.40;;;6.00;;
37049;SDS011;22958;51.232;6.826;2023-05-07T14:10:11;10.70;;;3.92;;
37049;SDS011;22958;51.232;6.826;2023-05-07T14:12:38;20.45;;;4.47;;
37049;SDS011;22958;51.232;6.826;2023-05-07T14:15:03;11.97;;;5.30;;
37049;SDS011;22958;51.232;6.826;2023-05-07T14:17:29;13.07;;;5.93;;
37049;SDS011;22958;51.232;6.826;2023-05-07T14:19:55;9.13;;;4.70;;
37049;SDS011;22958;51.232;6.826;2023-05-07T14:22:21;11.43;;;5.37;;
37049;SDS011;22958;51.232;6.826;2023-05-07T14:27:13;18.92;;;9.07;;
37049;SDS011;22958;51.232;6.826;2023-05-07T14:29:38;15.87;;;9.10;;
37049;SDS011;22958;51.232;6.826;2023-05-07T14:32:04;22.20;;;10.15;;
37049;SDS011;22958;51.232;6.826;2023-05-07T14:34:30;24.77;;;10.73;;
37049;SDS011;22958;51.232;6.826;2023-05-07T14:36:56;25.25;;;11.68;;
37049;SDS011;22958;51.232;6.826;2023-05-07T14:39:22;20.05;;;11.45;;
37049;SDS011;22958;51.232;6.826;2023-05-07T14:41:47;19.17;;;9.50;;
37049;SDS011;22958;51.232;6.826;2023-05-07T14:44:13;15.30;;;8.50;;
37049;SDS011;22958;51.232;6.826;2023-05-07T14:46:38;21.27;;;7.47;;
37049;SDS011;22958;51.232;6.826;2023-05-07T14:49:04;12.83;;;7.63;;
37049;SDS011;22958;51.232;6.826;2023-05-07T14:51:30;9.18;;;6.28;;
37049;SDS011;22958;51.232;6.826;2023-05-07T14:53:56;15.43;;;6.60;;
37049;SDS011;22958;51.232;6.826;2023-05-07T14:56:21;15.07;;;6.43;;
37049;SDS011;22958;51.232;6.826;2023-05-07T14:58:47;8.97;;;5.97;;
37049;SDS011;22958;51.232;6.826;2023-05-07T15:01:15;9.90;;;6.05;;
37049;SDS011;22958;51.232;6.826;2023-05-07T15:03:41;10.37;;;7.03;;
37049;SDS011;22958;51.232;6.826;2023-05-07T15:06:07;14.47;;;7.67;;
37049;SDS011;22958;51.232;6.826;2023-05-07T15:08:32;17.30;;;8.73;;
37049;SDS011;22958;51.232;6.826;2023-05-07T15:10:58;18.40;;;9.13;;
37049;SDS011;22958;51.232;6.826;2023-05-07T15:13:23;15.53;;;8.07;;
37049;SDS011;22958;51.232;6.826;2023-05-07T15:15:49;17.20;;;8.23;;
37049;SDS011;22958;51.232;6.826;2023-05-07T15:18:15;11.05;;;7.03;;
37049;SDS011;22958;51.232;6.826;2023-05-07T15:20:41;14.13;;;6.53;;